Time;durP1;ratioP1;P1;durP2;ratioP2;P2;SDS_P1;SDS_P2;PMS_P1;PMS_P2;Temp;Humidity;BMP_temperature;BMP_pressure;BME280_temperature;BME280_humidity;BME280_pressure;Samples;Min_cycle;Max_cycle;Signal;HPM_P1;HPM_P2
2022/07/05 00:02:05;;;;;;;37.15;35.20;;;;;;;19.91;54.33;96971.13;5073467;28;20727;-60
2022/07/05 00:04:31;;;;;;;50.33;47.67;;;;;;;19.75;55.33;96973.16;5073719;28;20243;-60
2022/07/05 00:09:41;;;;;;;151.35;143.65;;;;;;;19.82;54.37;96975.50;5073302;28;20291;-62
2022/07/05 00:12:07;;;;;;;176.05;167.35;;;;;;;19.82;54.31;96967.50;5072885;28;20224;-59
2022/07/05 00:14:32;;;;;;;217.35;206.70;;;;;;;19.99;54.16;96967.09;5072688;28;20176;-58
2022/07/05 00:16:58;;;;;;;291.25;276.65;;;;;;;19.50;55.67;96965.41;5073738;28;20162;-54
2022/07/05 00:19:23;;;;;;;305.52;289.88;;;;;;;19.67;55.10;96968.44;5073484;28;20169;-55
2022/07/05 00:21:49;;;;;;;239.55;227.15;;;;;;;19.66;55.47;96968.72;5073023;28;20201;-55
2022/07/05 00:24:14;;;;;;;183.68;173.93;;;;;;;19.67;55.78;96970.31;5073519;28;20165;-56
2022/07/05 00:26:39;;;;;;;164.90;156.05;;;;;;;19.51;56.02;96965.13;5073415;28;20211;-59
2022/07/05 00:29:05;;;;;;;114.70;108.68;;;;;;;19.41;56.49;96970.50;5073196;28;20238;-59
2022/07/05 00:31:30;;;;;;;79.90;75.55;;;;;;;19.46;56.61;96967.81;5071874;28;20194;-63
2022/07/05 00:33:56;;;;;;;56.88;53.80;;;;;;;19.48;56.25;96967.56;5073244;28;20188;-55
2022/07/05 00:36:21;;;;;;;73.15;69.05;;;;;;;19.50;56.15;96963.53;5073122;28;20181;-60
2022/07/05 00:38:47;;;;;;;81.80;77.05;;;;;;;19.63;55.74;96958.63;5073461;28;20201;-60
2022/07/05 00:41:12;;;;;;;59.67;56.47;;;;;;;19.72;55.66;96959.63;5070320;28;20309;-63
2022/07/05 00:43:55;;;;;;;52.13;49.10;;;;;;;19.71;55.61;96963.38;5072740;28;20165;-58
2022/07/05 00:46:21;;;;;;;55.10;52.03;;;;;;;19.55;56.25;96962.72;5072944;28;20161;-60
2022/07/05 00:48:47;;;;;;;52.33;49.25;;;;;;;19.61;55.98;96963.47;5072834;28;20172;-60
2022/07/05 00:51:12;;;;;;;41.58;39.25;;;;;;;19.58;55.98;96961.34;5072405;28;20228;-59
2022/07/05 00:53:38;;;;;;;43.28;40.90;;;;;;;19.43;56.46;96954.28;5072637;28;20266;-59
2022/07/05 00:56:04;;;;;;;39.70;37.55;;;;;;;19.41;56.39;96959.84;5071779;28;20185;-54
2022/07/05 00:58:32;;;;;;;36.03;33.88;;;;;;;19.46;56.22;96962.50;5072269;28;20618;-55
2022/07/05 01:00:57;;;;;;;35.50;33.55;;;;;;;19.50;56.30;96958.19;5072260;28;20192;-55
2022/07/05 01:03:23;;;;;;;35.80;33.92;;;;;;;19.64;55.94;96954.91;5072878;28;20157;-57
2022/07/05 01:05:49;;;;;;;42.55;40.15;;;;;;;19.59;55.88;96957.63;5072618;28;20188;-57
2022/07/05 01:08:15;;;;;;;39.88;37.72;;;;;;;19.58;55.97;96961.34;5072076;28;20201;-53
2022/07/05 01:10:41;;;;;;;40.00;37.83;;;;;;;19.45;56.42;96960.91;5072112;28;20563;-57
2022/07/05 01:13:08;;;;;;;37.03;35.10;;;;;;;19.38;56.91;96963.09;5072608;28;20169;-58
2022/07/05 01:15:34;;;;;;;38.88;36.70;;;;;;;19.32;57.12;96958.88;5072077;28;20169;-58
2022/07/05 01:18:00;;;;;;;29.73;28.05;;;;;;;19.55;56.48;96964.56;5072559;28;20605;-58
2022/07/05 01:20:26;;;;;;;27.65;26.15;;;;;;;19.49;56.50;96963.81;5072351;28;20215;-60
2022/07/05 01:22:56;;;;;;;71.45;67.57;;;;;;;19.27;58.06;96964.22;5072077;28;20185;-59
2022/07/05 01:25:26;;;;;;;97.25;92.03;;;;;;;19.07;59.16;96964.34;5071761;28;20272;-60
2022/07/05 01:27:53;;;;;;;82.43;78.03;;;;;;;18.91;59.84;96968.19;5072298;28;20205;-59
2022/07/05 01:30:19;;;;;;;51.10;48.38;;;;;;;18.91;60.40;96970.84;5072266;28;20555;-59
2022/07/05 01:32:46;;;;;;;80.53;76.30;;;;;;;18.98;59.75;96972.13;5071740;28;20227;-59
2022/07/05 01:35:12;;;;;;;157.40;149.70;;;;;;;19.03;59.64;96969.44;5071756;28;20165;-54
2022/07/05 01:37:38;;;;;;;238.85;227.60;;;;;;;18.91;60.29;96966.31;5071742;28;20208;-58
2022/07/05 01:40:05;;;;;;;277.15;263.88;;;;;;;18.87;60.68;96967.16;5069835;28;21559;-59
2022/07/05 01:42:31;;;;;;;160.07;152.18;;;;;;;19.07;60.16;96964.34;5072094;28;20228;-60
2022/07/05 01:44:56;;;;;;;250.02;237.40;;;;;;;18.86;60.84;96974.31;5071886;28;20169;-59
2022/07/05 01:47:22;;;;;;;317.98;301.08;;;;;;;18.79;61.88;96967.72;5071817;28;20205;-59
2022/07/05 01:49:51;;;;;;;122.35;115.82;;;;;;;18.61;63.20;96967.28;5071662;28;20165;-58
2022/07/05 01:52:19;;;;;;;28.37;26.70;;;;;;;18.55;64.57;96971.03;5071939;28;20205;-60
2022/07/05 01:54:45;;;;;;;164.13;155.47;;;;;;;18.49;66.37;96966.00;5071479;28;20732;-59
2022/07/05 01:57:10;;;;;;;34.13;32.27;;;;;;;18.50;67.14;96963.03;5070559;28;20275;-59
2022/07/05 01:59:37;;;;;;;98.37;92.97;;;;;;;18.50;67.73;96968.34;5071658;28;20215;-57
2022/07/05 02:02:03;;;;;;;95.00;89.90;;;;;;;18.37;68.66;96965.50;5071321;28;20197;-59
2022/07/05 02:04:29;;;;;;;31.90;30.00;;;;;;;18.31;69.34;96972.69;5071116;28;20180;-59
2022/07/05 02:06:55;;;;;;;123.47;115.40;;;;;;;18.18;70.15;96967.94;5071362;28;20193;-58
2022/07/05 02:09:21;;;;;;;91.47;86.55;;;;;;;18.10;70.62;96964.00;5072039;28;20181;-58
2022/07/05 02:11:46;;;;;;;56.17;53.03;;;;;;;18.15;70.90;96968.50;5071442;28;20205;-57
2022/07/05 02:14:11;;;;;;;38.93;36.73;;;;;;;18.06;71.80;96967.44;5071476;28;20174;-59
2022/07/05 02:16:37;;;;;;;45.57;42.83;;;;;;;18.15;71.73;96974.59;5071271;28;20258;-61
2022/07/05 02:19:03;;;;;;;114.27;108.27;;;;;;;18.24;71.35;96965.00;5054016;28;20173;-58
2022/07/05 02:21:29;;;;;;;112.10;105.97;;;;;;;18.01;73.20;96973.56;5070766;28;20253;-57
2022/07/05 02:23:54;;;;;;;54.03;51.10;;;;;;;17.72;74.85;96969.94;5072057;28;20174;-60
2022/07/05 02:26:20;;;;;;;42.67;40.20;;;;;;;17.50;76.21;96967.50;5071911;28;20231;-59
2022/07/05 02:28:46;;;;;;;23.93;22.33;;;;;;;17.67;76.09;96961.94;5071868;28;20235;-59
2022/07/05 02:31:11;;;;;;;36.50;34.40;;;;;;;17.70;76.80;96967.53;5071622;28;20212;-58
2022/07/05 02:33:37;;;;;;;71.90;67.97;;;;;;;17.81;77.00;96963.00;5071330;28;20681;-59
2022/07/05 02:36:10;;;;;;;148.13;140.07;;;;;;;17.74;76.95;96975.72;5071270;28;20731;-58
2022/07/05 02:38:36;;;;;;;153.23;145.03;;;;;;;17.45;78.89;96968.31;5074684;28;20195;-60
2022/07/05 02:41:06;;;;;;;165.23;156.27;;;;;;;17.60;78.69;96970.19;5072795;28;20311;-58
2022/07/05 02:43:32;;;;;;;98.27;92.87;;;;;;;17.50;81.03;96967.50;5075533;28;20180;-59
2022/07/05 02:45:57;;;;;;;81.30;76.80;;;;;;;17.56;81.22;96974.38;5075340;28;20222;-59
2022/07/05 02:48:23;;;;;;;78.27;73.83;;;;;;;17.71;80.87;96978.94;5075141;28;20186;-60
2022/07/05 02:50:48;;;;;;;86.60;81.87;;;;;;;17.68;79.91;96976.78;5074900;28;20212;-60
2022/07/05 02:53:14;;;;;;;95.87;90.70;;;;;;;17.82;78.03;96970.69;5074805;28;20204;-61
2022/07/05 02:55:40;;;;;;;112.70;106.73;;;;;;;17.75;78.24;96969.38;5074325;28;20217;-59
2022/07/05 02:58:05;;;;;;;46.03;43.13;;;;;;;17.41;82.84;96977.84;5073685;28;20169;-58
2022/07/05 03:00:32;;;;;;;29.60;27.80;;;;;;;17.24;84.27;96979.16;5074286;28;20184;-57
2022/07/05 03:02:57;;;;;;;37.17;34.87;;;;;;;17.16;81.83;96979.69;5074987;28;20169;-58
2022/07/05 03:05:22;;;;;;;36.47;34.40;;;;;;;17.34;81.92;96981.81;5075063;28;20227;-59
2022/07/05 03:07:48;;;;;;;26.07;24.57;;;;;;;17.44;81.89;96979.19;5074781;28;20197;-59
2022/07/05 03:10:13;;;;;;;29.07;27.27;;;;;;;17.52;81.69;96973.34;5073740;28;20192;-59
2022/07/05 03:12:38;;;;;;;41.23;39.00;;;;;;;17.37;82.79;96979.44;5074538;28;20201;-59
2022/07/05 03:15:05;;;;;;;45.40;42.87;;;;;;;17.32;82.78;96976.00;5073772;28;20200;-58
2022/07/05 03:17:30;;;;;;;42.17;39.17;;;;;;;17.32;82.78;96982.09;5074763;28;20615;-62
2022/07/05 03:19:55;;;;;;;38.83;36.47;;;;;;;17.35;82.25;96986.84;5074757;28;20268;-59
2022/07/05 03:22:21;;;;;;;38.10;36.03;;;;;;;17.22;82.77;96986.59;5074316;28;20757;-60
2022/07/05 03:24:47;;;;;;;39.97;37.67;;;;;;;17.19;83.81;96979.97;5074105;28;20174;-61
2022/07/05 03:27:13;;;;;;;39.17;36.97;;;;;;;17.34;82.95;96984.47;5074528;28;20294;-60
2022/07/05 03:29:38;;;;;;;24.97;23.23;;;;;;;17.59;78.91;96981.81;5074008;28;20223;-59
2022/07/05 03:32:04;;;;;;;94.27;89.20;;;;;;;17.62;77.36;96988.47;5074182;28;20205;-58
2022/07/05 03:34:30;;;;;;;105.77;100.07;;;;;;;17.52;77.21;96985.78;5074169;28;20184;-57
2022/07/05 03:36:56;;;;;;;122.90;116.23;;;;;;;17.50;77.64;96987.94;5074153;28;20266;-59
2022/07/05 03:39:21;;;;;;;135.17;127.83;;;;;;;17.42;77.91;96990.03;5074129;28;20209;-58
2022/07/05 03:41:47;;;;;;;136.37;129.10;;;;;;;17.65;77.21;96995.91;5033299;28;1103990;-57
2022/07/05 03:44:12;;;;;;;145.70;138.13;;;;;;;17.75;77.48;96995.88;5073908;28;20189;-58
2022/07/05 03:46:37;;;;;;;126.97;120.33;;;;;;;18.07;76.35;96993.72;5073920;28;20586;-58
2022/07/05 03:49:03;;;;;;;223.77;211.70;;;;;;;17.90;77.36;97006.47;5072761;28;20158;-57
2022/07/05 03:51:28;;;;;;;226.10;213.93;;;;;;;17.93;77.27;97003.31;5073937;28;20700;-58
2022/07/05 03:53:54;;;;;;;257.65;244.27;;;;;;;18.06;76.92;97001.94;5073534;28;20165;-59
2022/07/05 03:56:22;;;;;;;219.55;208.38;;;;;;;18.03;75.43;97003.28;5072772;28;20177;-58
2022/07/05 03:58:49;;;;;;;319.17;301.57;;;;;;;18.37;73.49;97010.63;5072522;28;20181;-58
2022/07/05 04:01:17;;;;;;;206.02;195.02;;;;;;;19.17;70.44;97016.66;5073559;28;20284;-58
2022/07/05 04:03:43;;;;;;;129.52;122.28;;;;;;;19.49;69.12;97022.31;5073522;28;20551;-59
2022/07/05 04:06:09;;;;;;;141.57;134.23;;;;;;;19.62;68.73;97019.00;5073471;28;20170;-59
2022/07/05 04:08:35;;;;;;;208.18;197.38;;;;;;;19.70;67.67;97012.31;5073512;28;20236;-58
2022/07/05 04:11:01;;;;;;;156.95;148.52;;;;;;;19.74;67.11;97016.00;5073579;28;20689;-57
2022/07/05 04:13:26;;;;;;;243.95;231.25;;;;;;;20.14;65.11;97020.16;5073597;28;20621;-59
2022/07/05 04:15:53;;;;;;;213.25;202.07;;;;;;;20.09;65.34;97030.84;5073665;28;20161;-59
2022/07/05 04:18:18;;;;;;;182.60;173.23;;;;;;;20.72;62.71;97028.88;5073713;28;20181;-56
2022/07/05 04:20:44;;;;;;;212.88;201.57;;;;;;;21.01;61.50;97031.44;5073617;28;20200;-58
2022/07/05 04:23:10;;;;;;;161.45;152.68;;;;;;;20.78;59.69;97035.72;5073135;28;20172;-61
2022/07/05 04:25:35;;;;;;;168.00;158.90;;;;;;;20.60;61.46;97042.59;5073146;28;20169;-60
2022/07/05 04:28:01;;;;;;;144.90;136.93;;;;;;;20.78;61.21;97038.38;5072804;28;20205;-58
2022/07/05 04:30:27;;;;;;;147.05;139.07;;;;;;;20.94;60.19;97038.97;5073189;28;20180;-59
2022/07/05 04:32:52;;;;;;;326.35;308.85;;;;;;;21.17;59.21;97045.38;5073194;28;20261;-58
2022/07/05 04:35:18;;;;;;;303.27;286.95;;;;;;;20.94;58.90;97042.44;5073113;28;20185;-61
2022/07/05 04:37:44;;;;;;;428.67;405.48;;;;;;;21.73;55.16;97042.66;5073125;28;20262;-61
2022/07/05 04:40:12;;;;;;;244.80;231.45;;;;;;;21.24;56.16;97043.13;5071310;28;20319;-60
2022/07/05 04:42:38;;;;;;;191.27;180.85;;;;;;;21.96;54.29;97039.09;5073433;28;20299;-61
2022/07/05 04:45:04;;;;;;;180.57;171.10;;;;;;;22.12;52.49;97043.09;5073249;28;20161;-61
2022/07/05 04:47:30;;;;;;;179.85;170.82;;;;;;;22.18;52.24;97049.16;5072087;28;20198;-59
2022/07/05 04:49:57;;;;;;;142.23;135.07;;;;;;;22.31;51.18;97041.16;5073092;28;20248;-61
2022/07/05 04:52:23;;;;;;;99.03;94.10;;;;;;;21.50;53.05;97042.47;5073034;28;20287;-59
2022/07/05 04:54:49;;;;;;;82.90;78.65;;;;;;;22.22;51.32;97042.13;5072591;28;20631;-61
2022/07/05 04:57:14;;;;;;;76.55;72.68;;;;;;;21.61;52.71;97048.47;5072631;28;20204;-63
2022/07/05 04:59:40;;;;;;;70.53;66.88;;;;;;;21.61;52.95;97050.31;5072728;28;20601;-61
2022/07/05 05:02:06;;;;;;;71.28;67.70;;;;;;;21.80;51.92;97056.41;5072672;28;20197;-58
2022/07/05 05:04:31;;;;;;;72.97;69.13;;;;;;;21.50;52.67;97055.81;5072775;28;20165;-62
2022/07/05 05:06:56;;;;;;;67.65;64.20;;;;;;;22.01;52.24;97049.72;5072034;28;20534;-59
2022/07/05 05:09:22;;;;;;;71.75;68.05;;;;;;;22.18;51.70;97046.47;5072645;28;20161;-60
2022/07/05 05:11:48;;;;;;;244.50;232.25;;;;;;;22.22;50.07;97052.81;5071946;28;20766;-60
2022/07/05 05:14:14;;;;;;;168.40;160.25;;;;;;;21.84;51.72;97052.09;5065150;28;20208;-62
2022/07/05 05:16:39;;;;;;;135.40;128.75;;;;;;;21.95;51.25;97046.34;5064239;28;20585;-59
2022/07/05 05:19:05;;;;;;;163.02;155.15;;;;;;;22.51;50.45;97052.56;5072000;28;20236;-60
2022/07/05 05:21:30;;;;;;;374.40;355.30;;;;;;;22.21;50.73;97051.22;5072396;28;20208;-63
2022/07/05 05:23:56;;;;;;;369.80;351.38;;;;;;;22.67;49.52;97043.16;5072453;28;20615;-59
2022/07/05 05:26:21;;;;;;;277.73;263.83;;;;;;;22.89;48.07;97051.28;5072468;28;20161;-61
2022/07/05 05:28:47;;;;;;;408.30;388.50;;;;;;;22.31;48.52;97054.50;5071862;28;20692;-61
2022/07/05 05:31:12;;;;;;;445.58;423.75;;;;;;;22.65;48.15;97061.34;5072010;28;20193;-60
2022/07/05 05:33:38;;;;;;;446.63;424.90;;;;;;;22.89;47.57;97051.28;5071810;28;20215;-61
2022/07/05 05:36:04;;;;;;;473.58;450.77;;;;;;;22.78;47.96;97052.59;5071073;28;20186;-60
2022/07/05 05:38:29;;;;;;;506.23;481.83;;;;;;;22.40;48.07;97059.97;5070896;28;20607;-60
2022/07/05 05:40:55;;;;;;;369.67;351.88;;;;;;;22.52;48.44;97064.81;5068889;28;20225;-62
2022/07/05 05:43:20;;;;;;;429.27;408.38;;;;;;;22.40;48.39;97058.06;5070840;28;20243;-62
2022/07/05 05:45:46;;;;;;;482.45;459.25;;;;;;;22.58;47.73;97059.06;5071434;28;20162;-60
2022/07/05 05:48:11;;;;;;;435.48;414.67;;;;;;;22.32;48.95;97063.31;5053396;28;20200;-62
2022/07/05 05:50:41;;;;;;;419.50;399.20;;;;;;;22.06;49.22;97054.97;5071561;28;20166;-62
2022/07/05 05:53:07;;;;;;;446.73;425.75;;;;;;;21.85;48.13;97067.81;5071707;28;20214;-61
2022/07/05 05:55:33;;;;;;;152.60;145.07;;;;;;;21.94;48.92;97067.94;5071086;28;20674;-62
2022/07/05 05:58:15;;;;;;;204.95;194.43;;;;;;;22.61;47.76;97076.41;5071470;28;20162;-61
2022/07/05 06:00:47;;;;;;;230.13;218.98;;;;;;;22.48;48.54;97075.28;5071839;28;20208;-61
2022/07/05 06:03:14;;;;;;;263.35;250.73;;;;;;;22.17;49.87;97077.72;5071687;28;20180;-60
2022/07/05 06:05:40;;;;;;;321.17;306.05;;;;;;;22.32;49.69;97079.34;5071641;28;20507;-61
2022/07/05 06:08:06;;;;;;;227.55;216.63;;;;;;;22.73;48.38;97082.09;5068325;28;20202;-62
2022/07/05 06:10:33;;;;;;;349.15;332.63;;;;;;;23.34;46.59;97080.81;5068063;28;20181;-64
2022/07/05 06:13:01;;;;;;;457.85;435.83;;;;;;;23.70;45.24;97078.16;5070057;28;20166;-64
2022/07/05 06:15:27;;;;;;;377.63;359.65;;;;;;;22.60;46.79;97083.63;5071636;28;20200;-64
2022/07/05 06:17:52;;;;;;;463.00;440.35;;;;;;;23.07;47.12;97079.00;5071574;28;20157;-63
2022/07/05 06:20:23;;;;;;;372.75;354.52;;;;;;;23.63;47.64;97083.91;5071877;28;20519;-64
2022/07/05 06:22:50;;;;;;;413.42;392.98;;;;;;;23.45;45.87;97090.22;5053217;28;20180;-62
2022/07/05 06:25:15;;;;;;;492.70;469.02;;;;;;;23.60;47.39;97081.88;5071878;28;20165;-62
2022/07/05 06:27:45;;;;;;;420.00;399.40;;;;;;;23.78;46.09;97091.63;5071514;28;20295;-62
2022/07/05 06:30:14;;;;;;;497.90;472.55;;;;;;;24.39;44.85;97090.94;5071288;28;20180;-62
2022/07/05 06:32:41;;;;;;;543.90;516.50;;;;;;;24.11;44.75;97096.72;5071077;28;20254;-62
2022/07/05 06:35:08;;;;;;;572.05;542.03;;;;;;;24.72;44.67;97091.41;5071255;28;20177;-62
2022/07/05 06:37:44;;;;;;;509.15;483.85;;;;;;;24.42;44.15;97094.88;5071190;28;20526;-62
2022/07/05 06:40:11;;;;;;;411.17;391.02;;;;;;;24.06;45.28;97097.66;5069255;28;20240;-63
2022/07/05 06:42:37;;;;;;;542.88;516.35;;;;;;;24.58;44.68;97104.09;5052993;28;20229;-64
2022/07/05 06:45:04;;;;;;;625.00;593.67;;;;;;;24.83;44.17;97100.75;5071496;28;20181;-64
2022/07/05 06:47:29;;;;;;;564.78;536.85;;;;;;;23.86;45.85;97106.16;5071148;28;20650;-65
2022/07/05 06:49:57;;;;;;;643.53;610.35;;;;;;;23.78;46.16;97099.66;5071342;28;20189;-63
2022/07/05 06:52:23;;;;;;;694.67;656.22;;;;;;;22.93;48.18;97095.03;5071064;28;20205;-64
2022/07/05 06:54:48;;;;;;;524.92;497.50;;;;;;;23.13;48.25;97099.97;5064420;28;20190;-63
2022/07/05 06:57:14;;;;;;;457.80;434.90;;;;;;;23.25;48.07;97107.47;5056010;28;20210;-64
2022/07/05 06:59:39;;;;;;;482.60;457.98;;;;;;;24.18;45.94;97107.84;5080157;28;20169;-64
2022/07/05 07:02:05;;;;;;;648.35;613.03;;;;;;;24.35;44.47;97108.72;5091220;28;20200;-63
2022/07/05 07:04:30;;;;;;;486.40;462.52;;;;;;;24.74;43.06;97116.00;5073410;28;20197;-64
2022/07/05 07:06:55;;;;;;;223.45;212.45;;;;;;;24.76;42.42;97108.44;5070151;28;20235;-63
2022/07/05 07:09:22;;;;;;;220.43;209.73;;;;;;;24.51;42.96;97113.69;5081928;28;20215;-62
2022/07/05 07:11:48;;;;;;;166.60;158.23;;;;;;;24.46;42.51;97116.50;5084603;28;20243;-62
2022/07/05 07:14:15;;;;;;;168.15;160.05;;;;;;;24.30;42.40;97111.53;5036664;28;20547;-63
2022/07/05 07:16:41;;;;;;;256.27;243.70;;;;;;;24.30;43.05;97108.03;5070258;28;20635;-61
2022/07/05 07:19:06;;;;;;;123.95;117.75;;;;;;;24.59;41.78;97104.88;5070352;28;20174;-61
2022/07/05 07:21:33;;;;;;;114.88;109.32;;;;;;;24.59;41.22;97113.72;5069514;28;20209;-63
2022/07/05 07:23:58;;;;;;;93.20;88.63;;;;;;;25.17;40.22;97115.41;5072480;28;20665;-62
2022/07/05 07:26:23;;;;;;;71.95;68.30;;;;;;;24.12;42.43;97114.38;5074382;28;20181;-60
2022/07/05 07:28:49;;;;;;;66.47;62.88;;;;;;;23.04;44.95;97130.38;5074416;28;20186;-61
2022/07/05 07:31:14;;;;;;;113.70;108.20;;;;;;;23.96;43.69;97117.41;5073886;28;20254;-61
2022/07/05 07:33:40;;;;;;;59.90;56.60;;;;;;;23.32;43.37;97118.56;5055774;28;20259;-61
2022/07/05 07:36:05;;;;;;;91.70;86.78;;;;;;;23.20;44.05;97118.28;5074029;28;20212;-62
2022/07/05 07:38:31;;;;;;;87.97;83.75;;;;;;;24.14;42.22;97123.69;5073953;28;20211;-60
2022/07/05 07:40:56;;;;;;;117.60;111.90;;;;;;;23.66;43.88;97122.69;5071632;28;20312;-63
2022/07/05 07:43:22;;;;;;;105.45;100.35;;;;;;;23.33;43.56;97125.50;5074144;28;20554;-61
2022/07/05 07:45:48;;;;;;;92.80;88.32;;;;;;;23.95;42.20;97131.13;5055813;28;20571;-61
2022/07/05 07:48:13;;;;;;;119.40;113.40;;;;;;;23.79;42.29;97128.00;5073851;28;20215;-62
2022/07/05 07:50:39;;;;;;;320.77;305.42;;;;;;;23.48;43.96;97135.13;5073713;28;20177;-60
2022/07/05 07:53:05;;;;;;;303.45;288.50;;;;;;;23.20;44.59;97129.00;5074183;28;20196;-60
2022/07/05 07:55:30;;;;;;;509.77;484.20;;;;;;;23.80;43.92;97129.56;5073823;28;20173;-61
2022/07/05 07:57:55;;;;;;;566.35;537.50;;;;;;;24.02;43.35;97131.47;5073087;28;20177;-61
2022/07/05 08:00:21;;;;;;;726.75;687.28;;;;;;;24.81;42.51;97126.28;5073277;28;20182;-61
2022/07/05 08:02:47;;;;;;;516.95;490.02;;;;;;;24.72;41.84;97131.63;5055857;28;20173;-61
2022/07/05 08:05:14;;;;;;;326.98;310.42;;;;;;;25.22;40.75;97128.66;5073317;28;20713;-61
2022/07/05 08:07:40;;;;;;;301.48;286.45;;;;;;;24.82;41.77;97127.88;5073372;28;20581;-61
2022/07/05 08:10:06;;;;;;;249.57;237.13;;;;;;;25.02;41.54;97127.31;5073699;28;20182;-63
2022/07/05 08:12:32;;;;;;;201.13;191.27;;;;;;;24.09;43.15;97134.53;5073352;28;20201;-62
2022/07/05 08:14:58;;;;;;;300.65;286.23;;;;;;;23.90;44.47;97133.94;5073565;28;20617;-64
2022/07/05 08:17:23;;;;;;;443.35;421.50;;;;;;;23.82;44.26;97140.00;5073328;28;20177;-64
2022/07/05 08:22:33;;;;;;;645.58;610.63;;;;;;;24.40;42.42;97135.41;5059570;28;20216;-64
2022/07/05 08:24:59;;;;;;;377.30;358.30;;;;;;;24.77;41.22;97123.44;5073301;28;20177;-63
2022/07/05 08:27:25;;;;;;;453.60;431.27;;;;;;;25.25;41.94;97125.34;5073114;28;20236;-63
2022/07/05 08:29:51;;;;;;;239.55;227.48;;;;;;;25.28;41.00;97127.41;5072517;28;20192;-60
2022/07/05 08:32:17;;;;;;;197.85;188.05;;;;;;;24.23;42.86;97132.63;5073055;28;20208;-62
2022/07/05 08:34:43;;;;;;;132.55;125.82;;;;;;;24.33;42.69;97129.69;5072079;28;20260;-60
2022/07/05 08:37:08;;;;;;;249.88;237.68;;;;;;;25.20;42.17;97120.13;5072797;28;20231;-61
2022/07/05 08:39:34;;;;;;;261.75;249.10;;;;;;;24.56;43.13;97124.28;5072895;28;20269;-58
2022/07/05 08:42:00;;;;;;;344.33;327.65;;;;;;;24.61;41.99;97130.31;5070562;28;20233;-61
2022/07/05 08:44:28;;;;;;;117.30;111.25;;;;;;;25.10;40.74;97125.78;5072473;28;20177;-64
2022/07/05 08:46:55;;;;;;;95.13;89.90;;;;;;;24.83;41.40;97126.78;5080851;28;20201;-66
2022/07/05 08:49:26;;;;;;;84.43;80.07;;;;;;;23.94;43.68;97130.34;5071674;28;20173;-65
2022/07/05 08:51:52;;;;;;;98.30;93.38;;;;;;;23.48;44.21;97124.41;5072335;28;20193;-64
2022/07/05 08:54:18;;;;;;;233.50;222.50;;;;;;;24.34;43.53;97122.44;5071492;28;20176;-64
2022/07/05 08:56:44;;;;;;;150.75;143.50;;;;;;;24.73;42.47;97127.84;5071773;28;20181;-65
2022/07/05 08:59:09;;;;;;;82.47;78.32;;;;;;;24.93;40.78;97123.84;5072109;28;20161;-64
2022/07/05 09:01:36;;;;;;;76.18;72.18;;;;;;;25.39;40.57;97122.53;5072439;28;20489;-63
2022/07/05 09:04:05;;;;;;;101.93;96.75;;;;;;;25.95;40.02;97122.44;5071787;28;20200;-63
2022/07/05 09:06:32;;;;;;;81.10;76.72;;;;;;;26.20;39.24;97128.88;5072338;28;20533;-64
2022/07/05 09:08:58;;;;;;;87.03;82.55;;;;;;;24.42;43.25;97130.50;5072109;28;20227;-66
2022/07/05 09:11:51;;;;;;;145.07;138.10;;;;;;;24.08;43.45;97132.94;5071932;28;20569;-65
2022/07/05 09:14:23;;;;;;;315.35;300.58;;;;;;;24.47;42.81;97128.78;5068887;28;20276;-64
2022/07/05 09:16:49;;;;;;;275.35;262.05;;;;;;;25.21;41.94;97121.72;5072265;28;20240;-64
2022/07/05 09:19:14;;;;;;;212.13;201.50;;;;;;;24.68;42.60;97127.19;5054171;28;20173;-65
2022/07/05 09:21:40;;;;;;;179.48;170.63;;;;;;;24.48;42.87;97131.16;5062673;28;20229;-66
2022/07/05 09:24:08;;;;;;;106.47;101.03;;;;;;;23.36;44.01;97127.56;5071874;28;20174;-62
2022/07/05 09:26:41;;;;;;;81.82;77.85;;;;;;;23.70;42.26;97135.16;5072168;28;20178;-66
2022/07/05 09:29:11;;;;;;;80.63;76.40;;;;;;;23.88;41.44;97134.22;5071824;28;20173;-64
2022/07/05 09:31:39;;;;;;;72.63;68.93;;;;;;;23.74;42.03;97135.38;5071941;28;20662;-65
2022/07/05 09:34:09;;;;;;;68.15;64.65;;;;;;;23.96;41.42;97130.81;5071541;28;20244;-64
2022/07/05 09:36:46;;;;;;;65.05;61.78;;;;;;;23.93;41.62;97131.41;5072156;28;20564;-64
2022/07/05 09:39:12;;;;;;;65.47;62.13;;;;;;;24.00;40.62;97139.03;5071848;28;20271;-65
2022/07/05 09:41:37;;;;;;;69.45;65.97;;;;;;;24.51;39.85;97140.50;5069638;28;20352;-65
2022/07/05 09:44:03;;;;;;;77.53;73.57;;;;;;;24.53;40.10;97136.41;5071356;28;20188;-65
2022/07/05 09:46:32;;;;;;;79.63;75.65;;;;;;;24.79;39.16;97137.34;5071456;28;20170;-64
2022/07/05 09:48:57;;;;;;;67.00;63.55;;;;;;;24.30;39.34;97143.66;5071457;28;20271;-67
2022/07/05 09:51:23;;;;;;;79.05;74.93;;;;;;;24.17;40.60;97141.84;5071600;28;20216;-65
2022/07/05 09:53:53;;;;;;;85.90;81.70;;;;;;;24.66;37.94;97140.91;5071588;28;20177;-65
2022/07/05 09:56:19;;;;;;;90.22;85.00;;;;;;;24.44;38.46;97143.63;5071750;28;20177;-65
2022/07/05 09:58:45;;;;;;;95.72;90.85;;;;;;;24.04;38.93;97138.13;5070816;28;20185;-67
2022/07/05 10:01:28;;;;;;;57.22;54.17;;;;;;;24.07;39.82;97131.38;5071601;28;20291;-68
2022/07/05 10:03:54;;;;;;;51.65;48.95;;;;;;;24.90;38.54;97143.25;5071323;28;20177;-66
2022/07/05 10:06:22;;;;;;;104.95;99.57;;;;;;;24.95;38.11;97132.38;5071673;28;20173;-65
2022/07/05 10:08:49;;;;;;;133.25;126.72;;;;;;;25.41;36.74;97131.84;5071278;28;20177;-65
2022/07/05 10:11:16;;;;;;;117.20;111.30;;;;;;;25.63;35.30;97137.13;5064881;28;20197;-64
2022/07/05 10:13:43;;;;;;;47.63;45.08;;;;;;;25.25;35.42;97138.75;5071160;28;20184;-64
2022/07/05 10:16:09;;;;;;;45.88;43.55;;;;;;;24.99;35.74;97138.69;5070812;28;20238;-64
2022/07/05 10:18:35;;;;;;;54.22;51.08;;;;;;;25.40;36.57;97129.50;5071311;28;20195;-65
2022/07/05 10:21:02;;;;;;;38.60;36.50;;;;;;;25.27;35.96;97132.00;5070541;28;20201;-62
2022/07/05 10:23:28;;;;;;;39.20;37.20;;;;;;;25.30;36.18;97133.25;5071271;28;20642;-63
2022/07/05 10:25:56;;;;;;;35.15;33.30;;;;;;;25.38;35.26;97142.44;5071569;28;20227;-63
2022/07/05 10:28:24;;;;;;;31.08;29.35;;;;;;;25.18;36.04;97141.91;5071435;28;20350;-63
2022/07/05 10:30:50;;;;;;;37.17;35.25;;;;;;;25.21;33.84;97143.97;5071398;28;20211;-63
2022/07/05 10:33:20;;;;;;;43.67;41.40;;;;;;;25.27;34.70;97136.56;5070727;28;20264;-74
2022/07/05 10:35:48;;;;;;;130.75;124.47;;;;;;;24.84;33.12;97139.88;5070803;28;20251;-61
2022/07/05 10:38:14;;;;;;;152.88;145.52;;;;;;;24.56;34.31;97143.84;5071411;28;20549;-64
2022/07/05 10:40:43;;;;;;;151.80;144.45;;;;;;;24.03;34.71;97141.09;5068208;28;20643;-63
2022/07/05 10:43:12;;;;;;;155.38;148.02;;;;;;;24.53;34.95;97133.72;5071036;28;20177;-62
2022/07/05 10:45:47;;;;;;;102.38;97.22;;;;;;;24.83;34.78;97130.25;5070927;28;20470;-63
2022/07/05 10:48:17;;;;;;;103.32;98.28;;;;;;;25.26;34.21;97119.66;5071121;28;20726;-63
2022/07/05 10:51:06;;;;;;;139.60;132.80;;;;;;;24.83;33.08;97129.44;5071711;28;20197;-63
2022/07/05 10:53:35;;;;;;;161.88;154.07;;;;;;;24.65;34.09;97115.19;5056857;28;20644;-63
2022/07/05 10:56:03;;;;;;;180.27;171.43;;;;;;;24.42;33.71;97121.69;5071709;28;20257;-65
2022/07/05 10:58:55;;;;;;;178.23;169.48;;;;;;;24.42;34.47;97113.63;5072232;28;20240;-65
2022/07/05 11:01:21;;;;;;;173.85;165.70;;;;;;;24.99;35.00;97121.81;5056522;28;20254;-65
2022/07/05 11:03:49;;;;;;;108.35;103.35;;;;;;;25.61;34.56;97127.81;5075224;28;20525;-65
2022/07/05 11:06:25;;;;;;;151.35;144.05;;;;;;;25.07;33.91;97123.72;5075320;28;20157;-64
2022/07/05 11:08:56;;;;;;;146.02;138.88;;;;;;;24.81;35.36;97124.38;5074558;28;20285;-65
2022/07/05 11:11:41;;;;;;;91.05;86.50;;;;;;;24.78;35.75;97125.03;5074339;28;20201;-65